sensor_id;sensor_type;location;lat;lon;timestamp;P1;durP1;ratioP1;P2;durP2;ratioP2
3311;SDS011;1668;49.648;8.570;2023-09-19T00:00:15;3.17;;;1.60;;
3311;SDS011;1668;49.648;8.570;2023-09-19T00:02:45;2.83;;;1.50;;
3311;SDS011;1668;49.648;8.570;2023-09-19T00:05:13;4.70;;;1.60;;
3311;SDS011;1668;49.648;8.570;2023-09-19T00:07:40;3.40;;;1.50;;
3311;SDS011;1668;49.648;8.570;2023-09-19T00:10:07;3.47;;;2.03;;
3311;SDS011;1668;49.648;8.570;2023-09-19T00:12:35;3.20;;;1.57;;
3311;SDS011;1668;49.648;8.570;2023-09-19T00:15:02;5.40;;;1.67;;
3311;SDS011;1668;49.648;8.570;2023-09-19T00:17:29;6.40;;;1.73;;
3311;SDS011;1668;49.648;8.570;2023-09-19T00:19:58;5.00;;;1.67;;
3311;SDS011;1668;49.648;8.570;2023-09-19T00:22:32;4.70;;;1.50;;
3311;SDS011;1668;49.648;8.570;2023-09-19T00:24:59;2.40;;;1.20;;
3311;SDS011;1668;49.648;8.570;2023-09-19T00:27:26;4.00;;;1.53;;
3311;SDS011;1668;49.648;8.570;2023-09-19T00:29:53;2.67;;;1.53;;
3311;SDS011;1668;49.648;8.570;2023-09-19T00:32:21;6.87;;;2.10;;
3311;SDS011;1668;49.648;8.570;2023-09-19T00:34:48;6.57;;;1.70;;
3311;SDS011;1668;49.648;8.570;2023-09-19T00:37:16;4.60;;;1.70;;
3311;SDS011;1668;49.648;8.570;2023-09-19T00:39:43;2.23;;;1.50;;
3311;SDS011;1668;49.648;8.570;2023-09-19T00:42:17;3.13;;;1.47;;
3311;SDS011;1668;49.648;8.570;2023-09-19T00:44:46;4.23;;;1.60;;
3311;SDS011;1668;49.648;8.570;2023-09-19T00:47:16;3.50;;;1.90;;
3311;SDS011;1668;49.648;8.570;2023-09-19T00:49:43;3.43;;;1.67;;
3311;SDS011;1668;49.648;8.570;2023-09-19T00:52:10;3.00;;;1.47;;
3311;SDS011;1668;49.648;8.570;2023-09-19T00:54:39;2.10;;;1.50;;
3311;SDS011;1668;49.648;8.570;2023-09-19T00:57:06;3.30;;;1.77;;
3311;SDS011;1668;49.648;8.570;2023-09-19T00:59:34;3.60;;;1.50;;
3311;SDS011;1668;49.648;8.570;2023-09-19T01:02:02;2.20;;;1.70;;
3311;SDS011;1668;49.648;8.570;2023-09-19T01:04:29;2.40;;;1.27;;
3311;SDS011;1668;49.648;8.570;2023-09-19T01:06:56;3.03;;;1.50;;
3311;SDS011;1668;49.648;8.570;2023-09-19T01:09:23;3.43;;;1.50;;
3311;SDS011;1668;49.648;8.570;2023-09-19T01:11:53;4.53;;;1.57;;
3311;SDS011;1668;49.648;8.570;2023-09-19T01:14:29;3.07;;;1.70;;
3311;SDS011;1668;49.648;8.570;2023-09-19T01:17:05;3.10;;;1.53;;
3311;SDS011;1668;49.648;8.570;2023-09-19T01:19:56;2.90;;;1.70;;
3311;SDS011;1668;49.648;8.570;2023-09-19T01:22:37;2.20;;;1.50;;
3311;SDS011;1668;49.648;8.570;2023-09-19T01:25:20;3.23;;;1.67;;
3311;SDS011;1668;49.648;8.570;2023-09-19T01:28:31;1.90;;;1.33;;
3311;SDS011;1668;49.648;8.570;2023-09-19T01:31:06;4.57;;;1.77;;
3311;SDS011;1668;49.648;8.570;2023-09-19T01:33:55;4.70;;;1.80;;
3311;SDS011;1668;49.648;8.570;2023-09-19T01:36:24;3.00;;;1.70;;
3311;SDS011;1668;49.648;8.570;2023-09-19T01:38:52;2.57;;;1.73;;
3311;SDS011;1668;49.648;8.570;2023-09-19T01:41:21;4.80;;;1.80;;
3311;SDS011;1668;49.648;8.570;2023-09-19T01:43:55;2.17;;;1.50;;
3311;SDS011;1668;49.648;8.570;2023-09-19T01:46:29;4.13;;;1.50;;
3311;SDS011;1668;49.648;8.570;2023-09-19T01:49:02;5.17;;;2.03;;
3311;SDS011;1668;49.648;8.570;2023-09-19T01:51:42;5.23;;;1.83;;
3311;SDS011;1668;49.648;8.570;2023-09-19T01:54:25;6.87;;;2.10;;
3311;SDS011;1668;49.648;8.570;2023-09-19T01:56:57;4.57;;;1.80;;
3311;SDS011;1668;49.648;8.570;2023-09-19T01:59:31;6.60;;;2.20;;
3311;SDS011;1668;49.648;8.570;2023-09-19T02:02:06;7.20;;;2.20;;
3311;SDS011;1668;49.648;8.570;2023-09-19T02:04:34;3.17;;;1.23;;
3311;SDS011;1668;49.648;8.570;2023-09-19T02:07:01;4.27;;;2.00;;
3311;SDS011;1668;49.648;8.570;2023-09-19T02:09:30;5.33;;;1.80;;
3311;SDS011;1668;49.648;8.570;2023-09-19T02:11:58;3.40;;;1.50;;
3311;SDS011;1668;49.648;8.570;2023-09-19T02:14:25;3.00;;;1.70;;
3311;SDS011;1668;49.648;8.570;2023-09-19T02:16:52;5.27;;;2.00;;
3311;SDS011;1668;49.648;8.570;2023-09-19T02:19:21;3.97;;;1.70;;
3311;SDS011;1668;49.648;8.570;2023-09-19T02:21:48;5.10;;;1.80;;
3311;SDS011;1668;49.648;8.570;2023-09-19T02:24:14;3.30;;;1.83;;
3311;SDS011;1668;49.648;8.570;2023-09-19T02:26:41;2.73;;;1.70;;
3311;SDS011;1668;49.648;8.570;2023-09-19T02:29:08;4.60;;;1.90;;
3311;SDS011;1668;49.648;8.570;2023-09-19T02:31:38;4.27;;;1.80;;
3311;SDS011;1668;49.648;8.570;2023-09-19T02:34:04;5.43;;;1.80;;
3311;SDS011;1668;49.648;8.570;2023-09-19T02:36:36;3.10;;;1.80;;
3311;SDS011;1668;49.648;8.570;2023-09-19T02:39:03;3.20;;;1.90;;
3311;SDS011;1668;49.648;8.570;2023-09-19T02:41:31;4.47;;;1.97;;
3311;SDS011;1668;49.648;8.570;2023-09-19T02:43:58;4.83;;;1.70;;
3311;SDS011;1668;49.648;8.570;2023-09-19T02:46:26;3.20;;;1.90;;
3311;SDS011;1668;49.648;8.570;2023-09-19T02:48:53;3.90;;;1.90;;
3311;SDS011;1668;49.648;8.570;2023-09-19T02:51:20;4.13;;;1.60;;
3311;SDS011;1668;49.648;8.570;2023-09-19T02:53:49;3.50;;;1.70;;
3311;SDS011;1668;49.648;8.570;2023-09-19T02:56:17;3.10;;;1.67;;
3311;SDS011;1668;49.648;8.570;2023-09-19T02:58:44;4.80;;;1.90;;
3311;SDS011;1668;49.648;8.570;2023-09-19T03:01:11;2.87;;;1.70;;
3311;SDS011;1668;49.648;8.570;2023-09-19T03:03:37;3.53;;;1.80;;
3311;SDS011;1668;49.648;8.570;2023-09-19T03:06:06;3.30;;;1.87;;
3311;SDS011;1668;49.648;8.570;2023-09-19T03:08:34;3.67;;;1.63;;
3311;SDS011;1668;49.648;8.570;2023-09-19T03:11:04;5.40;;;2.17;;
3311;SDS011;1668;49.648;8.570;2023-09-19T03:13:33;5.33;;;2.37;;
3311;SDS011;1668;49.648;8.570;2023-09-19T03:16:01;4.60;;;2.23;;
3311;SDS011;1668;49.648;8.570;2023-09-19T03:18:30;3.40;;;2.10;;
3311;SDS011;1668;49.648;8.570;2023-09-19T03:20:58;3.77;;;1.93;;
3311;SDS011;1668;49.648;8.570;2023-09-19T03:23:26;3.13;;;1.67;;
3311;SDS011;1668;49.648;8.570;2023-09-19T03:25:53;2.37;;;1.70;;
3311;SDS011;1668;49.648;8.570;2023-09-19T03:28:22;7.07;;;1.67;;
3311;SDS011;1668;49.648;8.570;2023-09-19T03:30:57;4.07;;;2.10;;
3311;SDS011;1668;49.648;8.570;2023-09-19T03:33:25;2.23;;;1.50;;
3311;SDS011;1668;49.648;8.570;2023-09-19T03:35:52;3.87;;;1.93;;
3311;SDS011;1668;49.648;8.570;2023-09-19T03:38:19;3.27;;;1.93;;
3311;SDS011;1668;49.648;8.570;2023-09-19T03:40:46;4.93;;;1.70;;
3311;SDS011;1668;49.648;8.570;2023-09-19T03:43:13;2.83;;;1.80;;
3311;SDS011;1668;49.648;8.570;2023-09-19T03:45:41;6.83;;;2.00;;
3311;SDS011;1668;49.648;8.570;2023-09-19T03:48:08;3.70;;;2.10;;
3311;SDS011;1668;49.648;8.570;2023-09-19T03:50:35;4.63;;;1.90;;
3311;SDS011;1668;49.648;8.570;2023-09-19T03:53:02;5.20;;;2.23;;
3311;SDS011;1668;49.648;8.570;2023-09-19T03:55:30;4.10;;;2.30;;
3311;SDS011;1668;49.648;8.570;2023-09-19T03:57:57;3.87;;;1.90;;
3311;SDS011;1668;49.648;8.570;2023-09-19T04:00:23;3.70;;;2.47;;
3311;SDS011;1668;49.648;8.570;2023-09-19T04:02:52;4.17;;;2.20;;
3311;SDS011;1668;49.648;8.570;2023-09-19T04:05:21;4.40;;;2.37;;
3311;SDS011;1668;49.648;8.570;2023-09-19T04:07:48;4.70;;;2.10;;
3311;SDS011;1668;49.648;8.570;2023-09-19T04:10:15;6.47;;;2.40;;
3311;SDS011;1668;49.648;8.570;2023-09-19T04:12:50;3.10;;;2.23;;
3311;SDS011;1668;49.648;8.570;2023-09-19T04:15:17;4.30;;;2.10;;
3311;SDS011;1668;49.648;8.570;2023-09-19T04:17:44;3.87;;;2.30;;
3311;SDS011;1668;49.648;8.570;2023-09-19T04:20:12;6.67;;;3.50;;
3311;SDS011;1668;49.648;8.570;2023-09-19T04:22:39;11.33;;;4.00;;
3311;SDS011;1668;49.648;8.570;2023-09-19T04:25:06;6.30;;;3.20;;
3311;SDS011;1668;49.648;8.570;2023-09-19T04:27:33;4.53;;;2.70;;
3311;SDS011;1668;49.648;8.570;2023-09-19T04:30:00;3.70;;;2.60;;
3311;SDS011;1668;49.648;8.570;2023-09-19T04:32:29;5.87;;;2.80;;
3311;SDS011;1668;49.648;8.570;2023-09-19T04:34:57;4.97;;;2.67;;
3311;SDS011;1668;49.648;8.570;2023-09-19T04:37:28;4.57;;;2.73;;
3311;SDS011;1668;49.648;8.570;2023-09-19T04:39:55;8.37;;;2.90;;
3311;SDS011;1668;49.648;8.570;2023-09-19T04:42:22;6.47;;;3.00;;
3311;SDS011;1668;49.648;8.570;2023-09-19T04:44:50;4.37;;;3.00;;
3311;SDS011;1668;49.648;8.570;2023-09-19T04:47:19;5.00;;;2.80;;
3311;SDS011;1668;49.648;8.570;2023-09-19T04:49:47;5.67;;;2.77;;
3311;SDS011;1668;49.648;8.570;2023-09-19T04:52:14;3.97;;;3.03;;
3311;SDS011;1668;49.648;8.570;2023-09-19T04:54:42;6.13;;;3.00;;
3311;SDS011;1668;49.648;8.570;2023-09-19T04:57:10;5.43;;;3.10;;
3311;SDS011;1668;49.648;8.570;2023-09-19T04:59:37;3.70;;;3.13;;
3311;SDS011;1668;49.648;8.570;2023-09-19T05:02:06;6.20;;;3.20;;
3311;SDS011;1668;49.648;8.570;2023-09-19T05:04:33;5.90;;;3.33;;
3311;SDS011;1668;49.648;8.570;2023-09-19T05:07:00;6.70;;;2.87;;
3311;SDS011;1668;49.648;8.570;2023-09-19T05:09:28;4.73;;;2.90;;
3311;SDS011;1668;49.648;8.570;2023-09-19T05:11:56;6.63;;;3.20;;
3311;SDS011;1668;49.648;8.570;2023-09-19T05:14:23;6.83;;;3.47;;
3311;SDS011;1668;49.648;8.570;2023-09-19T05:16:50;3.90;;;3.17;;
3311;SDS011;1668;49.648;8.570;2023-09-19T05:19:17;5.00;;;3.07;;
3311;SDS011;1668;49.648;8.570;2023-09-19T05:21:43;5.07;;;3.20;;
3311;SDS011;1668;49.648;8.570;2023-09-19T05:24:11;7.60;;;3.30;;
3311;SDS011;1668;49.648;8.570;2023-09-19T05:26:39;5.03;;;3.23;;
3311;SDS011;1668;49.648;8.570;2023-09-19T05:29:07;6.17;;;3.20;;
3311;SDS011;1668;49.648;8.570;2023-09-19T05:31:34;4.70;;;3.10;;
3311;SDS011;1668;49.648;8.570;2023-09-19T05:34:05;7.40;;;2.83;;
3311;SDS011;1668;49.648;8.570;2023-09-19T05:36:32;4.30;;;3.00;;
3311;SDS011;1668;49.648;8.570;2023-09-19T05:38:59;7.60;;;3.40;;
3311;SDS011;1668;49.648;8.570;2023-09-19T05:41:26;5.33;;;2.97;;
3311;SDS011;1668;49.648;8.570;2023-09-19T05:43:53;6.13;;;3.30;;
3311;SDS011;1668;49.648;8.570;2023-09-19T05:46:21;5.97;;;3.70;;
3311;SDS011;1668;49.648;8.570;2023-09-19T05:48:48;6.67;;;2.87;;
3311;SDS011;1668;49.648;8.570;2023-09-19T05:51:16;6.77;;;3.10;;
3311;SDS011;1668;49.648;8.570;2023-09-19T05:53:48;7.33;;;3.70;;
3311;SDS011;1668;49.648;8.570;2023-09-19T05:56:15;6.30;;;3.20;;
3311;SDS011;1668;49.648;8.570;2023-09-19T05:58:44;6.90;;;3.93;;
3311;SDS011;1668;49.648;8.570;2023-09-19T06:01:10;6.30;;;3.87;;
3311;SDS011;1668;49.648;8.570;2023-09-19T06:03:39;7.87;;;4.00;;
3311;SDS011;1668;49.648;8.570;2023-09-19T06:06:06;6.33;;;3.50;;
3311;SDS011;1668;49.648;8.570;2023-09-19T06:08:33;7.37;;;3.63;;
3311;SDS011;1668;49.648;8.570;2023-09-19T06:10:59;6.30;;;3.40;;
3311;SDS011;1668;49.648;8.570;2023-09-19T06:13:27;7.03;;;3.57;;
3311;SDS011;1668;49.648;8.570;2023-09-19T06:15:54;5.90;;;3.60;;
3311;SDS011;1668;49.648;8.570;2023-09-19T06:18:23;5.97;;;3.57;;
3311;SDS011;1668;49.648;8.570;2023-09-19T06:20:52;7.80;;;3.67;;
3311;SDS011;1668;49.648;8.570;2023-09-19T06:23:19;7.10;;;3.43;;
3311;SDS011;1668;49.648;8.570;2023-09-19T06:25:48;6.77;;;3.17;;
3311;SDS011;1668;49.648;8.570;2023-09-19T06:28:14;8.10;;;3.53;;
3311;SDS011;1668;49.648;8.570;2023-09-19T06:30:45;6.60;;;3.33;;
3311;SDS011;1668;49.648;8.570;2023-09-19T06:33:12;9.63;;;3.37;;
3311;SDS011;1668;49.648;8.570;2023-09-19T06:35:39;7.47;;;2.90;;
3311;SDS011;1668;49.648;8.570;2023-09-19T06:38:08;8.13;;;3.30;;
3311;SDS011;1668;49.648;8.570;2023-09-19T06:40:38;7.23;;;2.93;;
3311;SDS011;1668;49.648;8.570;2023-09-19T06:43:07;4.93;;;2.70;;
3311;SDS011;1668;49.648;8.570;2023-09-19T06:45:36;6.33;;;2.97;;
3311;SDS011;1668;49.648;8.570;2023-09-19T06:48:03;5.13;;;2.77;;
3311;SDS011;1668;49.648;8.570;2023-09-19T06:50:30;4.43;;;2.47;;
3311;SDS011;1668;49.648;8.570;2023-09-19T06:52:58;4.47;;;2.30;;
3311;SDS011;1668;49.648;8.570;2023-09-19T06:55:27;8.63;;;2.40;;
3311;SDS011;1668;49.648;8.570;2023-09-19T06:57:56;5.87;;;2.53;;
3311;SDS011;1668;49.648;8.570;2023-09-19T07:00:23;4.17;;;2.53;;
3311;SDS011;1668;49.648;8.570;2023-09-19T07:02:57;5.17;;;1.87;;
3311;SDS011;1668;49.648;8.570;2023-09-19T07:05:26;5.27;;;2.30;;
3311;SDS011;1668;49.648;8.570;2023-09-19T07:07:53;4.90;;;2.37;;
3311;SDS011;1668;49.648;8.570;2023-09-19T07:10:20;6.60;;;2.50;;
3311;SDS011;1668;49.648;8.570;2023-09-19T07:12:54;5.97;;;2.63;;
3311;SDS011;1668;49.648;8.570;2023-09-19T07:15:22;4.40;;;2.30;;
3311;SDS011;1668;49.648;8.570;2023-09-19T07:17:50;6.47;;;2.20;;
3311;SDS011;1668;49.648;8.570;2023-09-19T07:20:16;5.50;;;2.20;;
3311;SDS011;1668;49.648;8.570;2023-09-19T07:22:43;3.60;;;2.00;;
3311;SDS011;1668;49.648;8.570;2023-09-19T07:25:10;8.93;;;2.50;;
3311;SDS011;1668;49.648;8.570;2023-09-19T07:27:39;4.30;;;2.23;;
3311;SDS011;1668;49.648;8.570;2023-09-19T07:30:07;7.50;;;2.13;;
3311;SDS011;1668;49.648;8.570;2023-09-19T07:32:35;6.60;;;1.97;;
3311;SDS011;1668;49.648;8.570;2023-09-19T07:35:03;6.33;;;2.00;;
3311;SDS011;1668;49.648;8.570;2023-09-19T07:37:31;3.47;;;2.20;;
3311;SDS011;1668;49.648;8.570;2023-09-19T07:39:58;6.30;;;2.27;;
3311;SDS011;1668;49.648;8.570;2023-09-19T07:42:25;3.07;;;1.90;;
3311;SDS011;1668;49.648;8.570;2023-09-19T07:44:52;6.40;;;2.13;;
3311;SDS011;1668;49.648;8.570;2023-09-19T07:47:20;4.70;;;2.23;;
3311;SDS011;1668;49.648;8.570;2023-09-19T07:49:47;4.50;;;2.07;;
3311;SDS011;1668;49.648;8.570;2023-09-19T07:52:14;7.30;;;2.30;;
3311;SDS011;1668;49.648;8.570;2023-09-19T07:54:41;6.37;;;2.00;;
3311;SDS011;1668;49.648;8.570;2023-09-19T07:57:09;4.43;;;1.67;;
3311;SDS011;1668;49.648;8.570;2023-09-19T07:59:36;7.70;;;2.33;;
3311;SDS011;1668;49.648;8.570;2023-09-19T08:02:03;5.20;;;2.30;;
3311;SDS011;1668;49.648;8.570;2023-09-19T08:04:32;7.07;;;2.20;;
3311;SDS011;1668;49.648;8.570;2023-09-19T08:06:59;3.40;;;1.87;;
3311;SDS011;1668;49.648;8.570;2023-09-19T08:09:28;5.70;;;2.00;;
3311;SDS011;1668;49.648;8.570;2023-09-19T08:11:58;7.50;;;2.50;;
3311;SDS011;1668;49.648;8.570;2023-09-19T08:14:27;4.33;;;1.90;;
3311;SDS011;1668;49.648;8.570;2023-09-19T08:16:56;5.97;;;2.20;;
3311;SDS011;1668;49.648;8.570;2023-09-19T08:19:23;6.40;;;2.43;;
3311;SDS011;1668;49.648;8.570;2023-09-19T08:21:54;5.07;;;2.20;;
3311;SDS011;1668;49.648;8.570;2023-09-19T08:24:23;6.53;;;2.17;;
3311;SDS011;1668;49.648;8.570;2023-09-19T08:26:52;4.13;;;1.90;;
3311;SDS011;1668;49.648;8.570;2023-09-19T08:29:20;6.93;;;2.17;;
3311;SDS011;1668;49.648;8.570;2023-09-19T08:31:46;6.10;;;1.90;;
3311;SDS011;1668;49.648;8.570;2023-09-19T08:34:14;8.43;;;2.23;;
3311;SDS011;1668;49.648;8.570;2023-09-19T08:36:41;5.47;;;2.20;;
3311;SDS011;1668;49.648;8.570;2023-09-19T08:39:10;5.10;;;1.80;;
3311;SDS011;1668;49.648;8.570;2023-09-19T08:41:38;3.00;;;1.80;;
3311;SDS011;1668;49.648;8.570;2023-09-19T08:44:05;6.10;;;1.90;;
3311;SDS011;1668;49.648;8.570;2023-09-19T08:46:33;10.60;;;2.47;;
3311;SDS011;1668;49.648;8.570;2023-09-19T08:49:03;4.90;;;1.60;;
3311;SDS011;1668;49.648;8.570;2023-09-19T08:51:36;10.70;;;2.27;;
3311;SDS011;1668;49.648;8.570;2023-09-19T08:54:20;4.10;;;1.90;;
3311;SDS011;1668;49.648;8.570;2023-09-19T08:56:51;2.73;;;1.63;;
3311;SDS011;1668;49.648;8.570;2023-09-19T08:59:20;5.03;;;2.20;;
3311;SDS011;1668;49.648;8.570;2023-09-19T09:01:50;7.97;;;2.40;;
3311;SDS011;1668;49.648;8.570;2023-09-19T09:04:19;6.73;;;1.80;;
3311;SDS011;1668;49.648;8.570;2023-09-19T09:06:47;6.23;;;2.33;;
3311;SDS011;1668;49.648;8.570;2023-09-19T09:09:19;6.70;;;2.03;;
3311;SDS011;1668;49.648;8.570;2023-09-19T09:11:48;6.90;;;2.23;;
3311;SDS011;1668;49.648;8.570;2023-09-19T09:14:18;6.00;;;1.67;;
3311;SDS011;1668;49.648;8.570;2023-09-19T09:16:46;4.60;;;1.83;;
3311;SDS011;1668;49.648;8.570;2023-09-19T09:19:13;6.47;;;2.00;;
3311;SDS011;1668;49.648;8.570;2023-09-19T09:21:49;7.67;;;2.23;;
3311;SDS011;1668;49.648;8.570;2023-09-19T09:24:27;7.27;;;2.37;;
3311;SDS011;1668;49.648;8.570;2023-09-19T09:26:55;5.73;;;1.93;;
3311;SDS011;1668;49.648;8.570;2023-09-19T09:29:37;4.20;;;1.87;;
3311;SDS011;1668;49.648;8.570;2023-09-19T09:32:17;4.10;;;2.00;;
3311;SDS011;1668;49.648;8.570;2023-09-19T09:34:49;4.90;;;1.90;;
3311;SDS011;1668;49.648;8.570;2023-09-19T09:37:17;7.07;;;2.20;;
3311;SDS011;1668;49.648;8.570;2023-09-19T09:39:53;5.97;;;2.13;;
3311;SDS011;1668;49.648;8.570;2023-09-19T09:42:32;10.63;;;2.47;;
3311;SDS011;1668;49.648;8.570;2023-09-19T09:47:54;3.27;;;1.60;;
3311;SDS011;1668;49.648;8.570;2023-09-19T09:50:24;4.80;;;2.10;;
3311;SDS011;1668;49.648;8.570;2023-09-19T09:52:54;5.20;;;2.13;;
3311;SDS011;1668;49.648;8.570;2023-09-19T09:55:29;6.43;;;2.20;;
3311;SDS011;1668;49.648;8.570;2023-09-19T09:58:23;16.80;;;2.70;;
3311;SDS011;1668;49.648;8.570;2023-09-19T10:00:54;8.07;;;2.53;;
3311;SDS011;1668;49.648;8.570;2023-09-19T10:03:31;4.33;;;1.80;;
3311;SDS011;1668;49.648;8.570;2023-09-19T10:06:03;7.60;;;2.17;;
3311;SDS011;1668;49.648;8.570;2023-09-19T10:08:57;6.03;;;1.83;;
3311;SDS011;1668;49.648;8.570;2023-09-19T10:11:32;5.47;;;2.13;;
3311;SDS011;1668;49.648;8.570;2023-09-19T10:14:02;6.73;;;2.27;;
3311;SDS011;1668;49.648;8.570;2023-09-19T10:16:31;6.53;;;2.80;;
3311;SDS011;1668;49.648;8.570;2023-09-19T10:19:01;5.53;;;2.20;;
3311;SDS011;1668;49.648;8.570;2023-09-19T10:21:31;6.97;;;2.20;;
3311;SDS011;1668;49.648;8.570;2023-09-19T10:23:58;6.10;;;2.03;;
3311;SDS011;1668;49.648;8.570;2023-09-19T10:26:26;4.70;;;2.27;;
3311;SDS011;1668;49.648;8.570;2023-09-19T10:28:57;8.30;;;2.40;;
3311;SDS011;1668;49.648;8.570;2023-09-19T10:31:26;5.30;;;2.27;;
3311;SDS011;1668;49.648;8.570;2023-09-19T10:33:54;9.83;;;2.97;;
3311;SDS011;1668;49.648;8.570;2023-09-19T10:36:23;4.43;;;1.80;;
3311;SDS011;1668;49.648;8.570;2023-09-19T10:38:51;6.97;;;2.00;;
3311;SDS011;1668;49.648;8.570;2023-09-19T10:41:23;4.77;;;1.90;;
3311;SDS011;1668;49.648;8.570;2023-09-19T10:43:50;5.07;;;2.10;;
3311;SDS011;1668;49.648;8.570;2023-09-19T10:46:21;5.53;;;2.20;;
3311;SDS011;1668;49.648;8.570;2023-09-19T10:48:48;6.03;;;2.03;;
3311;SDS011;1668;49.648;8.570;2023-09-19T10:51:20;4.13;;;1.67;;
3311;SDS011;1668;49.648;8.570;2023-09-19T10:53:54;5.10;;;2.10;;
3311;SDS011;1668;49.648;8.570;2023-09-19T10:56:26;7.70;;;2.00;;
3311;SDS011;1668;49.648;8.570;2023-09-19T10:59:07;6.60;;;2.07;;
3311;SDS011;1668;49.648;8.570;2023-09-19T11:01:46;6.77;;;2.00;;
3311;SDS011;1668;49.648;8.570;2023-09-19T11:04:23;4.57;;;2.13;;
3311;SDS011;1668;49.648;8.570;2023-09-19T11:07:03;4.03;;;1.83;;
3311;SDS011;1668;49.648;8.570;2023-09-19T11:09:49;4.60;;;1.97;;
3311;SDS011;1668;49.648;8.570;2023-09-19T11:18:52;5.13;;;2.10;;
3311;SDS011;1668;49.648;8.570;2023-09-19T11:24:32;6.73;;;2.23;;
3311;SDS011;1668;49.648;8.570;2023-09-19T11:27:15;5.17;;;1.83;;
3311;SDS011;1668;49.648;8.570;2023-09-19T11:29:43;4.27;;;2.00;;
3311;SDS011;1668;49.648;8.570;2023-09-19T11:32:11;6.70;;;2.30;;
3311;SDS011;1668;49.648;8.570;2023-09-19T11:34:41;6.70;;;2.20;;
3311;SDS011;1668;49.648;8.570;2023-09-19T11:40:27;5.10;;;2.20;;
3311;SDS011;1668;49.648;8.570;2023-09-19T11:42:55;3.57;;;1.63;;
3311;SDS011;1668;49.648;8.570;2023-09-19T11:48:30;6.10;;;2.30;;
3311;SDS011;1668;49.648;8.570;2023-09-19T11:51:01;3.43;;;1.90;;
3311;SDS011;1668;49.648;8.570;2023-09-19T11:53:40;4.27;;;1.87;;
3311;SDS011;1668;49.648;8.570;2023-09-19T11:56:08;7.90;;;2.30;;
3311;SDS011;1668;49.648;8.570;2023-09-19T11:58:36;7.90;;;1.77;;
3311;SDS011;1668;49.648;8.570;2023-09-19T12:01:04;4.10;;;1.83;;
3311;SDS011;1668;49.648;8.570;2023-09-19T12:03:37;7.23;;;2.53;;
3311;SDS011;1668;49.648;8.570;2023-09-19T12:06:12;8.67;;;1.87;;
3311;SDS011;1668;49.648;8.570;2023-09-19T12:08:40;5.10;;;1.90;;
3311;SDS011;1668;49.648;8.570;2023-09-19T12:11:11;5.70;;;2.30;;
3311;SDS011;1668;49.648;8.570;2023-09-19T12:13:43;3.03;;;1.73;;
3311;SDS011;1668;49.648;8.570;2023-09-19T12:16:14;3.67;;;2.00;;
3311;SDS011;1668;49.648;8.570;2023-09-19T12:18:42;4.63;;;1.60;;
3311;SDS011;1668;49.648;8.570;2023-09-19T12:21:22;5.10;;;2.03;;
3311;SDS011;1668;49.648;8.570;2023-09-19T12:24:04;3.67;;;1.47;;
3311;SDS011;1668;49.648;8.570;2023-09-19T12:26:40;4.43;;;1.53;;
3311;SDS011;1668;49.648;8.570;2023-09-19T12:29:15;5.90;;;1.77;;
3311;SDS011;1668;49.648;8.570;2023-09-19T12:31:47;3.70;;;1.73;;
3311;SDS011;1668;49.648;8.570;2023-09-19T12:34:16;3.67;;;1.93;;
3311;SDS011;1668;49.648;8.570;2023-09-19T12:36:46;4.20;;;1.70;;
3311;SDS011;1668;49.648;8.570;2023-09-19T12:39:22;5.30;;;1.90;;
3311;SDS011;1668;49.648;8.570;2023-09-19T12:41:50;3.93;;;1.60;;
3311;SDS011;1668;49.648;8.570;2023-09-19T12:44:18;4.30;;;1.50;;
3311;SDS011;1668;49.648;8.570;2023-09-19T12:46:45;1.93;;;1.53;;
3311;SDS011;1668;49.648;8.570;2023-09-19T12:49:15;4.50;;;2.10;;
3311;SDS011;1668;49.648;8.570;2023-09-19T12:51:43;4.27;;;2.17;;
3311;SDS011;1668;49.648;8.570;2023-09-19T12:54:12;8.20;;;1.60;;
3311;SDS011;1668;49.648;8.570;2023-09-19T12:56:41;4.27;;;1.63;;
3311;SDS011;1668;49.648;8.570;2023-09-19T12:59:10;3.33;;;1.50;;
3311;SDS011;1668;49.648;8.570;2023-09-19T13:01:39;3.93;;;1.37;;
3311;SDS011;1668;49.648;8.570;2023-09-19T13:04:10;3.60;;;1.37;;
3311;SDS011;1668;49.648;8.570;2023-09-19T13:06:43;6.40;;;2.23;;
3311;SDS011;1668;49.648;8.570;2023-09-19T13:09:11;3.60;;;1.70;;
3311;SDS011;1668;49.648;8.570;2023-09-19T13:11:40;3.70;;;1.67;;
3311;SDS011;1668;49.648;8.570;2023-09-19T13:14:13;3.63;;;1.80;;
3311;SDS011;1668;49.648;8.570;2023-09-19T13:16:52;3.60;;;1.50;;
3311;SDS011;1668;49.648;8.570;2023-09-19T13:25:07;4.23;;;1.57;;
3311;SDS011;1668;49.648;8.570;2023-09-19T13:27:39;2.40;;;1.43;;
3311;SDS011;1668;49.648;8.570;2023-09-19T13:30:06;4.60;;;1.57;;
3311;SDS011;1668;49.648;8.570;2023-09-19T13:32:34;4.63;;;1.70;;
3311;SDS011;1668;49.648;8.570;2023-09-19T13:35:01;4.50;;;2.07;;
3311;SDS011;1668;49.648;8.570;2023-09-19T13:37:30;4.00;;;1.60;;
3311;SDS011;1668;49.648;8.570;2023-09-19T13:39:57;8.00;;;2.00;;
3311;SDS011;1668;49.648;8.570;2023-09-19T13:42:26;3.73;;;1.30;;
3311;SDS011;1668;49.648;8.570;2023-09-19T13:44:54;2.80;;;1.73;;
3311;SDS011;1668;49.648;8.570;2023-09-19T13:47:21;2.90;;;1.80;;
3311;SDS011;1668;49.648;8.570;2023-09-19T13:49:49;5.17;;;1.77;;
3311;SDS011;1668;49.648;8.570;2023-09-19T13:52:17;3.80;;;1.83;;
3311;SDS011;1668;49.648;8.570;2023-09-19T13:54:44;3.60;;;1.47;;
3311;SDS011;1668;49.648;8.570;2023-09-19T13:57:11;5.17;;;1.70;;
3311;SDS011;1668;49.648;8.570;2023-09-19T13:59:39;3.70;;;1.80;;
3311;SDS011;1668;49.648;8.570;2023-09-19T14:02:06;5.70;;;2.10;;
3311;SDS011;1668;49.648;8.570;2023-09-19T14:04:32;4.93;;;1.90;;
3311;SDS011;1668;49.648;8.570;2023-09-19T14:07:00;2.63;;;1.57;;
3311;SDS011;1668;49.648;8.570;2023-09-19T14:09:28;2.87;;;1.50;;
3311;SDS011;1668;49.648;8.570;2023-09-19T14:11:55;4.10;;;1.50;;
3311;SDS011;1668;49.648;8.570;2023-09-19T14:14:22;5.43;;;1.30;;
3311;SDS011;1668;49.648;8.570;2023-09-19T14:16:50;3.53;;;1.43;;
3311;SDS011;1668;49.648;8.570;2023-09-19T14:19:18;4.00;;;2.00;;
3311;SDS011;1668;49.648;8.570;2023-09-19T14:21:45;2.83;;;1.60;;
3311;SDS011;1668;49.648;8.570;2023-09-19T14:24:16;2.40;;;1.40;;
3311;SDS011;1668;49.648;8.570;2023-09-19T14:26:43;3.70;;;1.40;;
3311;SDS011;1668;49.648;8.570;2023-09-19T14:29:10;5.23;;;2.27;;
3311;SDS011;1668;49.648;8.570;2023-09-19T14:31:37;2.30;;;1.50;;
3311;SDS011;1668;49.648;8.570;2023-09-19T14:34:07;2.83;;;1.40;;
3311;SDS011;1668;49.648;8.570;2023-09-19T14:36:35;4.17;;;1.33;;
3311;SDS011;1668;49.648;8.570;2023-09-19T14:39:03;4.13;;;1.27;;
3311;SDS011;1668;49.648;8.570;2023-09-19T14:41:31;3.20;;;1.30;;
3311;SDS011;1668;49.648;8.570;2023-09-19T14:43:57;2.90;;;1.30;;
3311;SDS011;1668;49.648;8.570;2023-09-19T14:46:24;7.87;;;1.30;;
3311;SDS011;1668;49.648;8.570;2023-09-19T14:48:51;2.70;;;1.27;;
3311;SDS011;1668;49.648;8.570;2023-09-19T14:51:19;4.00;;;1.60;;
3311;SDS011;1668;49.648;8.570;2023-09-19T14:53:47;5.13;;;1.40;;
3311;SDS011;1668;49.648;8.570;2023-09-19T14:56:14;3.87;;;1.20;;
3311;SDS011;1668;49.648;8.570;2023-09-19T14:58:43;3.40;;;1.40;;
3311;SDS011;1668;49.648;8.570;2023-09-19T15:01:11;2.30;;;1.13;;
3311;SDS011;1668;49.648;8.570;2023-09-19T15:03:39;7.07;;;1.30;;
3311;SDS011;1668;49.648;8.570;2023-09-19T15:06:07;3.00;;;1.53;;
3311;SDS011;1668;49.648;8.570;2023-09-19T15:08:37;3.50;;;1.40;;
3311;SDS011;1668;49.648;8.570;2023-09-19T15:11:05;2.43;;;1.37;;
3311;SDS011;1668;49.648;8.570;2023-09-19T15:13:32;4.07;;;1.40;;
3311;SDS011;1668;49.648;8.570;2023-09-19T15:16:00;2.03;;;1.10;;
3311;SDS011;1668;49.648;8.570;2023-09-19T15:18:27;3.73;;;1.20;;
3311;SDS011;1668;49.648;8.570;2023-09-19T15:20:55;2.53;;;1.20;;
3311;SDS011;1668;49.648;8.570;2023-09-19T15:23:21;2.10;;;1.23;;
3311;SDS011;1668;49.648;8.570;2023-09-19T15:25:50;2.00;;;1.10;;
3311;SDS011;1668;49.648;8.570;2023-09-19T15:28:18;2.23;;;1.10;;
3311;SDS011;1668;49.648;8.570;2023-09-19T15:30:47;3.67;;;1.20;;
3311;SDS011;1668;49.648;8.570;2023-09-19T15:33:14;3.73;;;1.23;;
3311;SDS011;1668;49.648;8.570;2023-09-19T15:35:42;3.50;;;1.43;;
3311;SDS011;1668;49.648;8.570;2023-09-19T15:38:09;2.57;;;1.20;;
3311;SDS011;1668;49.648;8.570;2023-09-19T15:40:37;2.80;;;1.47;;
3311;SDS011;1668;49.648;8.570;2023-09-19T15:43:13;4.83;;;1.63;;
3311;SDS011;1668;49.648;8.570;2023-09-19T15:45:42;5.50;;;1.50;;
3311;SDS011;1668;49.648;8.570;2023-09-19T15:48:08;3.73;;;1.30;;
3311;SDS011;1668;49.648;8.570;2023-09-19T15:50:35;1.67;;;1.23;;
3311;SDS011;1668;49.648;8.570;2023-09-19T15:53:02;3.30;;;1.17;;